Time;durP1;ratioP1;P1;durP2;ratioP2;P2;SDS_P1;SDS_P2;PMS_P1;PMS_P2;Temp;Humidity;BMP_temperature;BMP_pressure;BME280_temperature;BME280_humidity;BME280_pressure;Samples;Min_cycle;Max_cycle;Signal;HPM_P1;HPM_P2
2023/07/05 00:01:41;;;;;;;6.47;4.78;;;23.60;71.90;;;;;;5035891;28;20033;-90
2023/07/05 00:04:08;;;;;;;6.22;4.15;;;23.70;71.80;;;;;;5035510;28;20116;-89
2023/07/05 00:06:34;;;;;;;5.68;4.32;;;23.70;71.50;;;;;;5034782;28;20420;-89
2023/07/05 00:08:59;;;;;;;6.28;4.32;;;23.70;71.20;;;;;;5051558;28;20127;-89
2023/07/05 00:11:25;;;;;;;4.97;4.20;;;23.70;71.10;;;;;;5034856;28;20120;-90
2023/07/05 00:13:51;;;;;;;6.47;4.68;;;23.70;71.10;;;;;;5035151;28;20029;-89
2023/07/05 00:16:16;;;;;;;4.90;4.28;;;23.70;71.10;;;;;;5034713;28;20032;-89
2023/07/05 00:18:42;;;;;;;6.53;4.32;;;23.70;71.30;;;;;;5033938;28;20067;-89
2023/07/05 00:21:10;;;;;;;6.10;4.15;;;23.70;71.40;;;;;;5035023;28;20029;-90
2023/07/05 00:23:37;;;;;;;4.95;4.28;;;23.70;71.50;;;;;;5034433;28;20436;-89
2023/07/05 00:26:05;;;;;;;5.82;4.20;;;23.70;71.60;;;;;;5034854;28;20029;-89
2023/07/05 00:28:34;;;;;;;5.57;3.90;;;23.70;71.60;;;;;;5034486;28;20021;-89
2023/07/05 00:31:00;;;;;;;4.90;4.20;;;23.70;71.70;;;;;;5035054;28;20029;-90
2023/07/05 00:33:26;;;;;;;5.50;4.20;;;23.70;71.80;;;;;;5034177;28;20495;-89
2023/07/05 00:35:54;;;;;;;7.05;4.70;;;23.70;71.80;;;;;;5034652;28;20119;-89
2023/07/05 00:38:20;;;;;;;5.35;4.18;;;23.70;71.80;;;;;;5034533;28;20033;-89
2023/07/05 00:40:46;;;;;;;5.50;4.70;;;23.70;71.80;;;;;;5034264;28;20021;-89
2023/07/05 00:43:13;;;;;;;5.93;4.30;;;23.70;71.80;;;;;;5034514;28;20017;-89
2023/07/05 00:45:50;;;;;;;6.28;4.00;;;23.70;71.90;;;;;;5033986;28;20123;-89
2023/07/05 00:48:20;;;;;;;5.55;4.53;;;23.70;71.90;;;;;;5034058;28;20124;-89
2023/07/05 00:50:49;;;;;;;5.60;3.92;;;23.70;71.90;;;;;;5034122;28;20025;-89
2023/07/05 00:53:15;;;;;;;6.40;4.88;;;23.70;72.00;;;;;;5034000;28;20055;-89
2023/07/05 00:55:47;;;;;;;6.82;4.85;;;23.70;72.10;;;;;;5034114;28;20025;-89
2023/07/05 00:58:13;;;;;;;5.97;4.43;;;23.70;72.60;;;;;;5033958;28;20036;-89
2023/07/05 01:00:39;;;;;;;5.70;4.70;;;23.70;71.90;;;;;;5034122;28;20116;-89
2023/07/05 01:03:10;;;;;;;4.85;4.30;;;23.60;71.90;;;;;;5033747;28;20052;-89
2023/07/05 01:05:36;;;;;;;6.15;4.50;;;23.60;72.00;;;;;;5033707;28;20535;-89
2023/07/05 01:08:04;;;;;;;6.43;4.78;;;23.60;72.10;;;;;;5034004;28;20036;-89
2023/07/05 01:10:30;;;;;;;5.75;4.97;;;23.60;72.10;;;;;;5033775;28;20025;-89
2023/07/05 01:13:21;;;;;;;5.50;4.50;;;23.60;72.10;;;;;;5051832;28;20028;-89
2023/07/05 01:16:16;;;;;;;6.03;4.50;;;23.60;72.00;;;;;;5035986;28;20029;-89
2023/07/05 01:18:53;;;;;;;5.20;4.50;;;23.50;72.00;;;;;;5033754;28;20017;-89
2023/07/05 01:21:52;;;;;;;7.15;5.00;;;23.50;72.10;;;;;;5033789;28;20091;-89
2023/07/05 01:24:38;;;;;;;5.55;4.70;;;23.50;72.70;;;;;;4966155;28;20025;-89
2023/07/05 01:27:26;;;;;;;5.35;4.68;;;23.50;72.10;;;;;;5034123;28;20037;-89
2023/07/05 01:30:13;;;;;;;7.25;5.35;;;23.40;71.90;;;;;;5035070;28;20049;-89
2023/07/05 01:33:03;;;;;;;6.18;4.90;;;23.40;71.80;;;;;;5026719;28;20108;-89
2023/07/05 01:35:44;;;;;;;8.07;5.00;;;23.40;71.70;;;;;;5017793;28;20034;-89
2023/07/05 01:38:10;;;;;;;6.38;4.63;;;23.40;71.70;;;;;;5017999;28;20056;-89
2023/07/05 01:40:38;;;;;;;6.65;4.75;;;23.40;71.80;;;;;;5035405;28;20603;-89
2023/07/05 01:43:11;;;;;;;5.97;5.10;;;23.40;71.80;;;;;;5017719;28;20044;-89
2023/07/05 01:46:00;;;;;;;6.47;5.05;;;23.40;72.00;;;;;;5035476;28;20533;-89
2023/07/05 01:48:34;;;;;;;6.65;5.10;;;23.40;72.10;;;;;;5018206;28;20432;-89
2023/07/05 01:51:21;;;;;;;6.55;5.60;;;23.40;72.30;;;;;;5017771;28;20048;-89
2023/07/05 01:53:53;;;;;;;6.95;5.10;;;23.40;72.30;;;;;;5017679;28;20033;-89
2023/07/05 01:56:24;;;;;;;7.63;5.50;;;23.40;72.60;;;;;;5017601;28;20029;-89
2023/07/05 01:58:54;;;;;;;7.82;6.03;;;23.40;72.70;;;;;;5035143;28;20086;-89
2023/07/05 02:01:22;;;;;;;6.88;5.90;;;23.40;72.90;;;;;;5017324;28;20032;-89
2023/07/05 02:03:49;;;;;;;6.50;5.53;;;23.40;73.00;;;;;;5017969;28;20388;-89
2023/07/05 02:06:17;;;;;;;7.32;5.50;;;23.40;73.10;;;;;;5017225;28;20056;-89
2023/07/05 02:08:47;;;;;;;7.38;5.60;;;23.50;73.20;;;;;;5035303;28;20065;-89
2023/07/05 02:11:12;;;;;;;6.20;5.00;;;23.40;73.20;;;;;;5017116;28;20029;-89
2023/07/05 02:13:38;;;;;;;6.85;5.00;;;23.40;73.30;;;;;;5017260;28;20083;-89
2023/07/05 02:16:04;;;;;;;5.25;4.50;;;23.50;73.30;;;;;;5016733;28;20030;-89
2023/07/05 02:18:30;;;;;;;5.05;4.53;;;23.50;73.40;;;;;;5017075;28;20025;-89
2023/07/05 02:20:56;;;;;;;6.07;4.65;;;23.50;73.50;;;;;;5034822;28;20071;-89
2023/07/05 02:23:22;;;;;;;5.78;4.72;;;23.50;73.50;;;;;;5017055;28;20025;-89
2023/07/05 02:25:50;;;;;;;5.78;5.10;;;23.50;73.60;;;;;;5034861;28;20396;-88
2023/07/05 02:28:16;;;;;;;5.70;5.10;;;23.60;73.70;;;;;;5035125;28;20060;-88
2023/07/05 02:30:41;;;;;;;6.30;4.93;;;23.60;73.70;;;;;;5017065;28;20068;-88
2023/07/05 02:33:07;;;;;;;6.35;5.13;;;23.60;73.90;;;;;;5017113;28;20075;-88
2023/07/05 02:35:39;;;;;;;5.65;4.68;;;23.60;73.80;;;;;;5016806;28;20397;-88
2023/07/05 02:38:06;;;;;;;7.22;5.40;;;23.60;74.50;;;;;;5034725;28;20083;-88
2023/07/05 02:40:32;;;;;;;5.40;4.90;;;23.70;74.00;;;;;;5033576;28;20443;-88
2023/07/05 02:42:59;;;;;;;5.88;4.47;;;23.70;74.20;;;;;;5016455;28;20385;-88
2023/07/05 02:45:26;;;;;;;6.38;4.72;;;23.70;74.20;;;;;;5016882;28;20619;-88
2023/07/05 02:47:52;;;;;;;7.25;4.82;;;23.70;74.20;;;;;;5017257;28;20030;-88
2023/07/05 02:50:21;;;;;;;6.22;4.93;;;23.80;74.30;;;;;;5022757;28;20052;-90
2023/07/05 02:52:56;;;;;;;6.80;5.03;;;23.80;74.30;;;;;;5029429;28;20029;-90
2023/07/05 02:55:34;;;;;;;6.18;4.60;;;23.90;74.30;;;;;;5027666;28;20029;-92
2023/07/05 02:58:01;;;;;;;6.10;4.45;;;23.80;74.30;;;;;;5012511;28;20025;-90
2023/07/05 03:00:34;;;;;;;5.30;4.60;;;23.90;74.50;;;;;;5027781;28;20440;-90
2023/07/05 03:03:00;;;;;;;5.13;4.53;;;23.90;74.50;;;;;;5027073;28;20061;-90
2023/07/05 03:05:35;;;;;;;6.22;5.13;;;24.00;74.30;;;;;;5030730;28;20052;-90
2023/07/05 03:08:28;;;;;;;6.28;4.30;;;24.00;73.60;;;;;;5061269;28;20044;-92
2023/07/05 03:11:01;;;;;;;6.07;4.53;;;24.00;73.10;;;;;;5048436;28;20029;-90
2023/07/05 03:14:02;;;;;;;4.72;4.10;;;24.00;72.90;;;;;;5046845;28;20044;-91
2023/07/05 03:16:41;;;;;;;5.65;4.25;;;24.10;72.50;;;;;;5059596;28;20123;-90
2023/07/05 03:19:06;;;;;;;4.95;3.85;;;24.10;72.40;;;;;;5046428;28;20507;-90
2023/07/05 03:21:39;;;;;;;5.57;4.47;;;24.20;72.30;;;;;;5046199;28;20052;-90
2023/07/05 03:24:24;;;;;;;6.35;4.60;;;24.20;72.20;;;;;;5062368;28;20047;-91
2023/07/05 03:27:13;;;;;;;5.40;4.40;;;24.30;72.00;;;;;;5047692;28;20035;-91
2023/07/05 03:29:44;;;;;;;7.43;4.75;;;24.40;71.80;;;;;;5049763;28;20443;-92
2023/07/05 03:32:10;;;;;;;6.50;4.68;;;24.50;71.40;;;;;;5037153;28;20060;-89
2023/07/05 03:34:39;;;;;;;6.95;4.80;;;24.50;71.10;;;;;;5036575;28;21882;-89
2023/07/05 03:37:05;;;;;;;5.13;4.20;;;24.60;70.70;;;;;;5036427;28;20028;-89
2023/07/05 03:39:30;;;;;;;4.97;4.22;;;24.70;71.00;;;;;;5036001;28;20025;-89
2023/07/05 03:41:56;;;;;;;5.75;4.65;;;24.90;71.20;;;;;;5036048;28;20112;-89
2023/07/05 03:44:22;;;;;;;5.15;4.30;;;25.20;70.80;;;;;;5035930;28;20028;-89
2023/07/05 03:46:49;;;;;;;4.90;4.00;;;25.50;70.50;;;;;;5035808;28;20025;-89
2023/07/05 03:49:15;;;;;;;7.50;4.32;;;26.10;70.30;;;;;;5035948;28;20028;-89
2023/07/05 03:51:41;;;;;;;5.22;4.28;;;27.00;70.00;;;;;;5035520;28;20094;-89
2023/07/05 03:54:07;;;;;;;4.30;3.90;;;28.00;68.60;;;;;;5035035;28;20017;-89
2023/07/05 03:56:36;;;;;;;4.72;3.40;;;28.90;66.80;;;;;;5035729;28;20481;-90
2023/07/05 03:59:02;;;;;;;4.75;3.20;;;29.90;65.50;;;;;;5035247;28;20079;-90
2023/07/05 04:01:29;;;;;;;3.80;2.97;;;30.90;63.90;;;;;;5053609;28;20389;-90
2023/07/05 04:04:02;;;;;;;4.00;3.42;;;31.80;62.40;;;;;;5035432;28;20032;-89
2023/07/05 04:06:30;;;;;;;4.05;3.50;;;32.80;61.00;;;;;;5035422;28;20052;-90
2023/07/05 04:08:56;;;;;;;3.53;3.22;;;33.70;59.60;;;;;;5054638;28;20029;-89
2023/07/05 04:11:23;;;;;;;4.53;3.20;;;34.60;58.40;;;;;;5035245;28;20074;-89
2023/07/05 04:13:49;;;;;;;3.80;3.28;;;35.50;57.50;;;;;;5053061;28;20036;-90
2023/07/05 04:16:18;;;;;;;3.65;3.00;;;36.30;56.30;;;;;;5033538;28;20021;-90
2023/07/05 04:18:45;;;;;;;3.20;2.90;;;36.90;55.20;;;;;;5067758;28;20481;-90
2023/07/05 04:21:20;;;;;;;3.63;3.00;;;37.70;54.00;;;;;;5034943;28;20028;-90
2023/07/05 04:23:49;;;;;;;3.20;2.85;;;38.30;53.20;;;;;;5043991;28;20115;-89
2023/07/05 04:26:24;;;;;;;2.78;2.53;;;39.10;52.60;;;;;;5036780;28;20112;-89
2023/07/05 04:28:50;;;;;;;2.90;2.63;;;39.60;51.70;;;;;;5033748;28;20044;-88
2023/07/05 04:31:23;;;;;;;3.17;2.88;;;40.10;50.90;;;;;;5031144;28;20033;-87
2023/07/05 04:33:49;;;;;;;3.50;2.97;;;40.50;50.40;;;;;;5031239;28;20033;-87
2023/07/05 04:36:15;;;;;;;3.85;3.20;;;40.90;50.10;;;;;;5031941;28;20051;-87
2023/07/05 04:38:40;;;;;;;3.40;3.10;;;41.00;49.80;;;;;;5032195;28;20021;-87
2023/07/05 04:41:09;;;;;;;3.75;3.08;;;41.20;49.70;;;;;;5051825;28;20017;-87
2023/07/05 04:43:34;;;;;;;3.13;2.83;;;41.40;50.00;;;;;;5030747;28;20481;-87
2023/07/05 04:46:00;;;;;;;3.47;3.17;;;41.50;48.90;;;;;;5030522;28;20033;-87
2023/07/05 04:48:29;;;;;;;3.90;3.20;;;41.70;48.70;;;;;;5030778;28;20040;-87
2023/07/05 04:50:55;;;;;;;3.28;2.97;;;41.90;48.20;;;;;;5031848;28;20034;-87
2023/07/05 04:53:26;;;;;;;4.20;3.72;;;42.10;47.70;;;;;;5031719;28;20485;-87
2023/07/05 04:55:54;;;;;;;5.97;3.40;;;42.30;47.10;;;;;;5032087;28;20036;-87
2023/07/05 04:58:22;;;;;;;3.42;2.85;;;42.50;46.70;;;;;;5036169;28;20025;-90
2023/07/05 05:00:51;;;;;;;3.20;2.88;;;42.60;46.70;;;;;;5040608;28;20025;-92
2023/07/05 05:03:21;;;;;;;3.70;2.80;;;42.70;46.30;;;;;;5041816;28;20032;-90
2023/07/05 05:05:54;;;;;;;3.30;3.00;;;42.80;46.10;;;;;;5041484;28;20056;-91
2023/07/05 05:08:21;;;;;;;4.03;3.25;;;43.00;45.80;;;;;;5042131;28;20025;-91
2023/07/05 05:10:51;;;;;;;4.93;3.05;;;43.00;45.60;;;;;;5039236;28;20032;-90
2023/07/05 05:13:17;;;;;;;3.67;3.00;;;43.00;45.10;;;;;;5038852;28;20056;-90
2023/07/05 05:15:43;;;;;;;3.80;3.10;;;43.00;45.00;;;;;;5054280;28;20400;-87
2023/07/05 05:18:09;;;;;;;4.00;2.83;;;42.90;44.80;;;;;;5036158;28;20111;-86
2023/07/05 05:20:38;;;;;;;3.30;3.00;;;42.80;44.70;;;;;;5036518;28;20773;-86
2023/07/05 05:23:05;;;;;;;4.47;3.10;;;42.80;44.40;;;;;;5033920;28;20273;-86
2023/07/05 05:25:31;;;;;;;4.10;2.97;;;42.70;43.90;;;;;;5034913;28;20060;-87
2023/07/05 05:27:57;;;;;;;3.42;3.05;;;42.50;43.50;;;;;;5033989;28;20095;-87
2023/07/05 05:30:22;;;;;;;4.55;3.50;;;42.00;43.60;;;;;;5051538;28;20025;-87
2023/07/05 05:32:48;;;;;;;5.10;3.38;;;41.20;43.80;;;;;;5033646;28;20083;-88
2023/07/05 05:35:15;;;;;;;3.72;3.30;;;40.30;44.30;;;;;;5035889;28;20473;-88
2023/07/05 05:37:41;;;;;;;4.75;3.45;;;39.30;44.90;;;;;;5051628;28;20013;-88
2023/07/05 05:40:08;;;;;;;4.85;3.78;;;38.30;45.70;;;;;;5032499;28;20029;-87
2023/07/05 05:42:34;;;;;;;5.93;3.90;;;37.30;46.50;;;;;;5032161;28;20036;-88
2023/07/05 05:44:59;;;;;;;4.07;3.65;;;36.40;47.30;;;;;;5032398;28;20029;-88
2023/07/05 05:47:25;;;;;;;4.38;3.67;;;35.60;48.60;;;;;;5048894;28;20029;-88
2023/07/05 05:49:51;;;;;;;5.72;3.67;;;35.00;48.70;;;;;;5051534;28;20186;-88
2023/07/05 05:52:17;;;;;;;3.97;3.50;;;34.30;49.40;;;;;;5035270;28;20516;-88
2023/07/05 05:54:44;;;;;;;4.70;3.88;;;33.80;50.00;;;;;;5045744;28;20066;-88
2023/07/05 05:57:09;;;;;;;3.90;3.40;;;33.40;50.50;;;;;;5053387;28;20029;-82
2023/07/05 05:59:35;;;;;;;4.47;3.55;;;33.00;50.90;;;;;;5032849;28;20033;-81
2023/07/05 06:02:01;;;;;;;5.47;3.85;;;32.60;51.50;;;;;;5043677;28;20480;-82
2023/07/05 06:04:27;;;;;;;5.15;3.63;;;32.30;51.90;;;;;;5066199;28;20494;-82
2023/07/05 06:06:53;;;;;;;4.72;4.15;;;32.00;52.40;;;;;;5031784;28;20405;-83
2023/07/05 06:09:19;;;;;;;5.97;4.05;;;31.70;52.70;;;;;;5035436;28;20032;-82
2023/07/05 06:11:44;;;;;;;5.00;3.70;;;31.50;53.20;;;;;;5039379;28;20518;-82
2023/07/05 06:14:10;;;;;;;4.30;3.90;;;31.30;53.60;;;;;;5039784;28;20029;-82
2023/07/05 06:16:36;;;;;;;7.60;4.50;;;31.10;54.10;;;;;;5042431;28;20104;-82
2023/07/05 06:19:01;;;;;;;9.73;4.70;;;30.90;54.50;;;;;;5038160;28;20028;-82
2023/07/05 06:21:27;;;;;;;9.95;5.43;;;30.70;55.00;;;;;;5033046;28;20046;-82
2023/07/05 06:23:53;;;;;;;6.40;4.72;;;30.50;55.40;;;;;;5053472;28;20131;-81
2023/07/05 06:26:19;;;;;;;5.30;4.55;;;30.40;55.80;;;;;;5053828;28;20025;-81
2023/07/05 06:28:46;;;;;;;6.35;4.95;;;30.20;56.10;;;;;;5052404;28;20017;-82
2023/07/05 06:31:12;;;;;;;5.55;4.28;;;30.00;56.30;;;;;;5053333;28;20021;-82
2023/07/05 06:33:39;;;;;;;4.97;4.38;;;29.90;56.60;;;;;;5052714;28;20084;-87
2023/07/05 06:36:06;;;;;;;5.63;4.47;;;29.80;56.90;;;;;;5042378;28;20030;-84
2023/07/05 06:38:33;;;;;;;6.57;4.50;;;29.70;56.90;;;;;;5051445;28;20461;-85
2023/07/05 06:40:58;;;;;;;5.78;4.35;;;29.60;57.10;;;;;;5056428;28;20528;-85
2023/07/05 06:43:25;;;;;;;6.03;4.35;;;29.50;57.50;;;;;;5045451;28;20127;-83
2023/07/05 06:45:54;;;;;;;6.13;4.70;;;29.40;57.80;;;;;;5035112;28;20386;-85
2023/07/05 06:48:20;;;;;;;6.38;5.03;;;29.40;58.30;;;;;;5053459;28;20095;-84
2023/07/05 06:50:51;;;;;;;6.00;5.15;;;29.30;58.60;;;;;;5052011;28;20028;-85
2023/07/05 06:53:16;;;;;;;;;;;29.30;59.00;;;;;;5032835;28;20758;-86
2023/07/05 06:55:42;;;;;;;6.28;5.10;;;29.20;59.20;;;;;;5032221;28;19920;-84
2023/07/05 06:58:08;;;;;;;4.90;4.38;;;29.20;59.10;;;;;;5035028;28;20032;-83
2023/07/05 07:00:34;;;;;;;5.50;4.60;;;29.10;59.90;;;;;;5031691;28;20292;-82
2023/07/05 07:02:59;;;;;;;6.82;5.15;;;29.10;59.50;;;;;;5032613;28;20036;-83
2023/07/05 07:05:25;;;;;;;7.60;5.47;;;29.00;59.70;;;;;;5048748;28;20080;-82
2023/07/05 07:07:53;;;;;;;6.88;5.13;;;29.00;59.90;;;;;;5050991;28;20037;-82
2023/07/05 07:10:19;;;;;;;6.85;5.30;;;29.00;60.10;;;;;;5031325;28;20033;-88
2023/07/05 07:12:44;;;;;;;6.32;4.90;;;28.90;60.10;;;;;;5032322;28;20087;-82
2023/07/05 07:15:10;;;;;;;7.60;5.10;;;28.90;60.40;;;;;;5032869;28;20071;-83
2023/07/05 07:17:36;;;;;;;7.05;5.22;;;28.80;60.50;;;;;;5050323;28;20033;-86
2023/07/05 07:20:01;;;;;;;6.57;5.13;;;28.80;60.50;;;;;;5048703;28;20485;-82
2023/07/05 07:22:27;;;;;;;6.70;5.60;;;28.80;60.70;;;;;;5047206;28;20043;-81
2023/07/05 07:24:52;;;;;;;6.13;4.85;;;28.70;60.70;;;;;;5047675;28;20036;-86
2023/07/05 07:27:19;;;;;;;5.60;4.90;;;28.70;60.90;;;;;;5057364;28;20029;-83
2023/07/05 07:29:45;;;;;;;7.15;5.20;;;28.70;61.10;;;;;;5053562;28;20083;-85
2023/07/05 07:32:10;;;;;;;5.80;4.90;;;28.70;61.10;;;;;;5044421;28;20033;-83
2023/07/05 07:34:36;;;;;;;6.38;4.97;;;28.70;61.30;;;;;;5040487;28;20739;-84
2023/07/05 07:37:03;;;;;;;6.38;5.32;;;28.70;61.30;;;;;;5034617;28;20592;-84
2023/07/05 07:39:29;;;;;;;7.75;4.88;;;28.70;61.20;;;;;;5035224;28;20158;-83
2023/07/05 07:41:55;;;;;;;6.38;4.60;;;28.70;61.20;;;;;;5030923;28;20029;-87
2023/07/05 07:44:21;;;;;;;6.38;5.00;;;28.70;61.30;;;;;;5024459;28;20025;-86
2023/07/05 07:46:47;;;;;;;17.40;6.82;;;28.70;61.40;;;;;;5018547;28;20044;-86
2023/07/05 07:49:13;;;;;;;11.35;5.80;;;28.70;61.60;;;;;;5056611;28;20031;-85
2023/07/05 07:51:44;;;;;;;13.13;7.50;;;28.70;61.70;;;;;;5032557;28;20021;-85
2023/07/05 07:54:18;;;;;;;9.02;5.75;;;28.70;61.80;;;;;;5038277;28;20021;-85
2023/07/05 07:56:48;;;;;;;7.25;5.35;;;28.60;61.90;;;;;;5029155;28;20382;-85
2023/07/05 07:59:14;;;;;;;8.23;6.00;;;28.60;62.20;;;;;;5024634;28;20432;-82
2023/07/05 08:01:40;;;;;;;14.43;6.88;;;28.70;62.20;;;;;;5041537;28;20286;-85
2023/07/05 08:04:09;;;;;;;17.73;6.50;;;28.70;62.40;;;;;;5018065;28;20037;-84
2023/07/05 08:06:43;;;;;;;14.55;6.38;;;28.70;62.50;;;;;;5011534;28;20127;-82
2023/07/05 08:09:15;;;;;;;13.80;6.07;;;28.70;62.50;;;;;;5024650;28;20030;-87
2023/07/05 08:11:41;;;;;;;8.55;5.50;;;28.70;62.70;;;;;;5025512;28;20034;-85
2023/07/05 08:14:08;;;;;;;10.80;5.85;;;28.70;62.90;;;;;;5021396;28;20499;-87
2023/07/05 08:16:34;;;;;;;6.47;5.15;;;28.70;62.90;;;;;;5023187;28;20582;-87
2023/07/05 08:19:00;;;;;;;6.18;5.32;;;28.70;62.80;;;;;;5025948;28;20076;-87
2023/07/05 08:21:26;;;;;;;5.88;5.15;;;28.70;62.90;;;;;;5013449;28;20042;-85
2023/07/05 08:23:52;;;;;;;6.05;5.03;;;28.70;62.90;;;;;;5012450;28;20030;-86
2023/07/05 08:26:18;;;;;;;7.45;5.50;;;28.70;63.00;;;;;;5029176;28;20021;-86
2023/07/05 08:28:45;;;;;;;9.57;6.05;;;28.70;63.20;;;;;;5031773;28;20079;-87
2023/07/05 08:31:11;;;;;;;8.20;5.10;;;28.70;63.30;;;;;;5006013;28;20044;-88
2023/07/05 08:33:37;;;;;;;15.50;5.85;;;28.70;63.50;;;;;;5040535;28;20037;-86
2023/07/05 08:36:15;;;;;;;6.43;5.10;;;28.70;63.60;;;;;;5026094;28;20029;-88
2023/07/05 08:38:54;;;;;;;6.32;5.43;;;28.70;63.20;;;;;;5023514;28;20061;-86
2023/07/05 08:41:35;;;;;;;6.40;4.90;;;28.70;63.00;;;;;;5014228;28;20032;-86
2023/07/05 08:44:16;;;;;;;5.72;4.85;;;28.70;63.00;;;;;;5028969;28;20025;-87
2023/07/05 08:46:45;;;;;;;5.63;4.80;;;28.70;63.00;;;;;;4996790;28;20271;-83
2023/07/05 08:49:22;;;;;;;5.57;4.97;;;28.60;62.90;;;;;;5034851;28;20557;-87
2023/07/05 08:51:48;;;;;;;5.55;4.65;;;28.60;63.10;;;;;;5022138;28;20115;-84
2023/07/05 08:54:16;;;;;;;4.90;4.40;;;28.60;63.20;;;;;;5012863;28;20072;-83
2023/07/05 08:56:51;;;;;;;5.70;5.10;;;28.60;63.50;;;;;;5004669;28;20106;-83
2023/07/05 08:59:29;;;;;;;6.15;4.82;;;28.50;63.50;;;;;;5018432;28;20032;-84
2023/07/05 09:01:56;;;;;;;5.15;4.28;;;28.50;63.50;;;;;;5022490;28;20500;-84
2023/07/05 09:04:27;;;;;;;5.25;4.55;;;28.40;63.40;;;;;;5021706;28;20083;-83
2023/07/05 09:07:18;;;;;;;5.05;4.55;;;28.40;63.50;;;;;;5021762;28;20047;-84
2023/07/05 09:10:07;;;;;;;;;;;28.30;63.50;;;;;;5042639;28;20120;-85
2023/07/05 09:13:07;;;;;;;6.38;4.63;;;28.30;63.60;;;;;;5051395;28;19928;-87
2023/07/05 09:15:37;;;;;;;4.75;4.15;;;28.20;63.60;;;;;;5024592;28;20025;-83
2023/07/05 09:18:08;;;;;;;5.15;4.60;;;28.20;63.80;;;;;;5024026;28;20033;-84
2023/07/05 09:20:52;;;;;;;5.05;4.40;;;28.20;64.00;;;;;;5025254;28;20033;-85
2023/07/05 09:23:25;;;;;;;5.60;4.95;;;28.20;64.00;;;;;;5024811;28;20029;-88
2023/07/05 09:29:32;;;;;;;5.32;4.40;;;28.10;63.50;;;;;;5069708;28;20049;-88
2023/07/05 09:32:09;;;;;;;5.28;4.40;;;28.10;63.60;;;;;;4968054;28;20031;-87
2023/07/05 09:40:19;;;;;;;5.30;4.75;;;28.00;63.50;;;;;;5046130;28;20416;-84
2023/07/05 09:43:04;;;;;;;5.72;4.55;;;27.90;63.40;;;;;;5024309;28;20033;-84
2023/07/05 09:45:30;;;;;;;6.85;4.93;;;27.90;63.40;;;;;;5024790;28;20506;-86
2023/07/05 09:48:09;;;;;;;5.82;4.70;;;27.90;63.50;;;;;;5019389;28;20025;-83
2023/07/05 09:50:35;;;;;;;5.47;4.20;;;27.90;64.00;;;;;;5031128;28;20033;-83
2023/07/05 09:53:10;;;;;;;6.30;5.15;;;27.90;63.50;;;;;;5033320;28;20028;-88
2023/07/05 09:56:08;;;;;;;5.30;4.57;;;27.80;63.30;;;;;;5028000;28;20131;-86
2023/07/05 09:58:35;;;;;;;5.38;4.45;;;27.80;63.40;;;;;;5047979;28;20205;-86
2023/07/05 10:01:04;;;;;;;4.97;4.47;;;27.80;63.40;;;;;;5052950;28;20027;-86
2023/07/05 10:03:37;;;;;;;5.18;4.13;;;27.80;63.30;;;;;;5024621;28;20544;-87
2023/07/05 10:06:07;;;;;;;6.25;4.93;;;27.80;63.20;;;;;;5031905;28;20110;-86
2023/07/05 10:08:43;;;;;;;4.78;4.28;;;27.80;63.30;;;;;;5051794;28;20033;-88
2023/07/05 10:11:36;;;;;;;5.03;4.43;;;27.80;63.40;;;;;;5062484;28;20036;-87
2023/07/05 10:14:10;;;;;;;5.03;4.53;;;27.70;63.40;;;;;;5051345;28;20025;-88
2023/07/05 10:16:53;;;;;;;5.43;4.82;;;27.70;63.50;;;;;;5030923;28;20504;-86
2023/07/05 10:19:42;;;;;;;6.22;5.10;;;27.70;63.50;;;;;;5051033;28;20028;-89
2023/07/05 10:22:34;;;;;;;5.03;4.53;;;27.70;63.40;;;;;;5025444;28;20024;-87
2023/07/05 10:25:13;;;;;;;5.03;4.53;;;27.70;63.20;;;;;;5049098;28;20045;-87
2023/07/05 10:27:43;;;;;;;5.15;4.63;;;27.70;63.00;;;;;;5057766;28;20043;-87
2023/07/05 10:30:15;;;;;;;4.75;4.30;;;27.70;62.90;;;;;;5028789;28;20107;-87
2023/07/05 10:32:43;;;;;;;5.05;4.55;;;27.70;62.80;;;;;;5048789;28;20119;-90
2023/07/05 10:35:27;;;;;;;5.00;4.50;;;27.70;62.60;;;;;;5049152;28;20060;-87
2023/07/05 10:37:54;;;;;;;5.10;4.60;;;27.70;62.30;;;;;;5032663;28;20025;-89
2023/07/05 10:40:21;;;;;;;4.97;4.47;;;27.70;62.20;;;;;;5016839;28;20029;-88
2023/07/05 10:42:58;;;;;;;6.15;5.03;;;27.70;62.30;;;;;;5016257;28;20029;-87
2023/07/05 10:45:27;;;;;;;5.47;4.97;;;27.70;62.00;;;;;;5025744;28;20037;-88
2023/07/05 10:47:53;;;;;;;5.05;4.55;;;27.70;62.10;;;;;;5027539;28;20056;-88
2023/07/05 10:50:36;;;;;;;4.50;4.10;;;27.70;62.20;;;;;;5034562;28;20064;-91
2023/07/05 10:53:06;;;;;;;4.90;4.40;;;27.70;62.30;;;;;;5016568;28;20485;-91
2023/07/05 10:55:53;;;;;;;5.20;4.20;;;27.70;62.30;;;;;;5033832;28;20021;-90
2023/07/05 10:58:21;;;;;;;5.13;4.60;;;27.70;62.40;;;;;;5026729;28;20029;-92
2023/07/05 11:01:13;;;;;;;5.00;4.50;;;27.70;62.50;;;;;;5021193;28;20049;-88
2023/07/05 11:08:49;;;;;;;5.78;5.07;;;27.70;62.60;;;;;;5082917;23;20149;-90
2023/07/05 11:11:24;;;;;;;5.75;4.97;;;27.70;62.70;;;;;;5024845;28;20041;-89
2023/07/05 11:13:52;;;;;;;5.03;4.50;;;27.70;62.50;;;;;;5028402;28;20029;-89
2023/07/05 11:16:26;;;;;;;5.80;5.18;;;27.70;62.60;;;;;;5023305;28;20109;-90
2023/07/05 11:19:00;;;;;;;6.57;5.07;;;27.70;62.60;;;;;;5054151;28;20453;-88
2023/07/05 11:21:40;;;;;;;6.07;4.72;;;27.70;62.60;;;;;;5016036;28;20286;-88
2023/07/05 11:27:42;;;;;;;;;;;;;;;;;;;;;
2023/07/05 11:30:37;;;;;;;6.38;4.85;;;27.70;62.30;;;;;;5011352;23;20093;-89
2023/07/05 11:33:06;;;;;;;9.50;5.68;;;27.70;63.00;;;;;;5264212;23;20072;-88
2023/07/05 11:36:24;;;;;;;6.57;5.30;;;27.70;62.50;;;;;;5031638;28;20034;-91
2023/07/05 11:38:57;;;;;;;10.27;5.38;;;27.70;62.30;;;;;;5039081;28;20833;-90
2023/07/05 11:44:02;;;;;;;10.48;5.22;;;27.70;62.30;;;;;;5052932;23;20501;-90
2023/07/05 11:46:41;;;;;;;9.52;4.88;;;27.70;62.20;;;;;;5014429;28;20061;-91
2023/07/05 11:49:37;;;;;;;5.43;4.82;;;27.70;62.20;;;;;;5014920;28;20116;-91
2023/07/05 11:52:10;;;;;;;5.10;4.50;;;27.70;61.80;;;;;;5018371;28;20037;-89
2023/07/05 11:54:42;;;;;;;315.80;37.20;;;27.70;62.00;;;;;;5057920;23;20054;-87
2023/07/05 11:57:12;;;;;;;58.60;11.95;;;27.70;61.90;;;;;;4985291;28;20330;-86
2023/07/05 12:00:05;;;;;;;139.35;20.45;;;27.70;61.90;;;;;;4994976;28;20052;-86
2023/07/05 12:02:45;;;;;;;14.00;6.22;;;27.70;61.80;;;;;;4994067;28;20044;-86
2023/07/05 12:05:18;;;;;;;5.53;4.93;;;27.70;61.60;;;;;;4990606;28;20058;-86
2023/07/05 12:07:47;;;;;;;5.72;4.90;;;27.70;61.50;;;;;;5012964;23;20502;-88
2023/07/05 12:10:22;;;;;;;6.00;4.72;;;27.70;61.40;;;;;;5012137;28;20029;-88
2023/07/05 12:18:14;;;;;;;6.78;4.35;;;27.70;60.50;;;;;;5040447;28;20545;-87
2023/07/05 12:20:45;;;;;;;5.70;4.53;;;27.70;60.20;;;;;;5045378;28;20033;-88
2023/07/05 12:31:22;;;;;;;4.78;3.92;;;27.70;59.50;;;;;;4973744;28;20047;-48
2023/07/05 12:33:56;;;;;;;4.70;3.88;;;27.70;59.30;;;;;;4974230;28;20030;-49
2023/07/05 12:36:22;;;;;;;4.13;3.72;;;27.70;59.10;;;;;;4976222;29;20054;-48
2023/07/05 12:38:50;;;;;;;4.00;3.60;;;27.70;59.30;;;;;;4971316;28;20039;-50
2023/07/05 12:41:18;;;;;;;4.05;3.65;;;27.70;59.60;;;;;;4972535;28;20054;-47
2023/07/05 12:43:44;;;;;;;4.05;3.65;;;27.70;59.60;;;;;;4976852;28;20043;-51
2023/07/05 12:46:22;;;;;;;4.22;3.72;;;27.70;59.40;;;;;;4974204;28;20043;-48
2023/07/05 12:48:49;;;;;;;4.10;3.70;;;27.70;59.40;;;;;;4971532;28;20019;-48
2023/07/05 12:51:19;;;;;;;5.00;3.83;;;27.70;59.40;;;;;;4975835;28;20023;-51
2023/07/05 12:53:58;;;;;;;3.90;3.50;;;27.70;59.30;;;;;;4974891;28;20031;-50
2023/07/05 12:56:36;;;;;;;3.85;3.40;;;27.70;59.30;;;;;;4978120;28;20099;-49
2023/07/05 12:59:06;;;;;;;3.97;3.58;;;27.80;59.30;;;;;;4971548;28;20023;-49
2023/07/05 13:01:38;;;;;;;4.40;3.83;;;27.80;58.90;;;;;;4974346;28;20031;-49
2023/07/05 13:04:17;;;;;;;4.25;3.50;;;27.80;58.60;;;;;;4974086;28;20011;-47
2023/07/05 13:06:44;;;;;;;3.92;3.45;;;27.80;58.60;;;;;;4975007;28;20031;-52
2023/07/05 13:09:10;;;;;;;3.83;3.50;;;27.80;58.20;;;;;;4974318;28;20035;-49
2023/07/05 13:11:37;;;;;;;3.65;3.33;;;27.90;58.30;;;;;;4977730;28;20071;-52
2023/07/05 13:14:10;;;;;;;3.97;3.58;;;27.90;58.10;;;;;;4974877;28;20003;-52
2023/07/05 13:16:41;;;;;;;3.83;3.45;;;27.90;58.40;;;;;;4975450;28;20035;-51
2023/07/05 13:19:08;;;;;;;4.40;3.67;;;28.00;58.60;;;;;;4980771;28;20047;-52
2023/07/05 13:21:43;;;;;;;4.32;3.65;;;28.00;58.60;;;;;;4977704;28;20038;-51
2023/07/05 13:24:27;;;;;;;4.10;3.70;;;28.10;58.80;;;;;;4974966;28;20050;-51
2023/07/05 13:26:56;;;;;;;4.47;3.80;;;28.10;58.80;;;;;;4978400;28;20058;-53
2023/07/05 13:29:29;;;;;;;4.47;4.07;;;28.10;58.80;;;;;;4976393;28;20039;-51
2023/07/05 13:31:55;;;;;;;4.03;3.50;;;28.20;59.60;;;;;;4977979;28;20019;-53
2023/07/05 13:34:22;;;;;;;5.55;3.90;;;28.20;59.30;;;;;;4979681;28;20030;-49
2023/07/05 13:36:52;;;;;;;4.50;4.10;;;28.30;59.40;;;;;;4972419;28;20070;-48
2023/07/05 13:39:18;;;;;;;4.20;3.80;;;28.30;59.50;;;;;;4994048;23;20360;-84
2023/07/05 13:41:45;;;;;;;5.05;4.13;;;28.30;59.40;;;;;;4973065;28;20031;-84